sensor_id;sensor_type;location;lat;lon;timestamp;pressure;altitude;pressure_sealevel;temperature;humidity
50166;BME280;36071;48.140;11.516;2023-05-24T00:04:00;95670.0;;;15.5;67.4
50166;BME280;36071;48.140;11.516;2023-05-24T00:09:01;95670.0;;;15.4;67.4
50166;BME280;36071;48.140;11.516;2023-05-24T00:14:00;95660.0;;;15.4;67.7
50166;BME280;36071;48.140;11.516;2023-05-24T00:19:00;95660.0;;;15.1;68.5
50166;BME280;36071;48.140;11.516;2023-05-24T00:24:01;95660.0;;;15.2;68.4
50166;BME280;36071;48.140;11.516;2023-05-24T00:29:00;95660.0;;;15.1;68.6
50166;BME280;36071;48.140;11.516;2023-05-24T00:34:00;95660.0;;;15.1;69.1
50166;BME280;36071;48.140;11.516;2023-05-24T00:39:02;95660.0;;;15.1;69.3
50166;BME280;36071;48.140;11.516;2023-05-24T00:49:00;95660.0;;;15.1;69.4
50166;BME280;36071;48.140;11.516;2023-05-24T00:54:00;95660.0;;;15.1;69.3
50166;BME280;36071;48.140;11.516;2023-05-24T00:59:01;95650.0;;;15.2;68.8
50166;BME280;36071;48.140;11.516;2023-05-24T01:04:00;95660.0;;;15.0;69.0
50166;BME280;36071;48.140;11.516;2023-05-24T01:09:06;95650.0;;;14.9;69.6
50166;BME280;36071;48.140;11.516;2023-05-24T01:14:03;95650.0;;;14.9;69.9
50166;BME280;36071;48.140;11.516;2023-05-24T01:19:01;95640.0;;;14.9;69.9
50166;BME280;36071;48.140;11.516;2023-05-24T01:24:03;95650.0;;;14.9;69.3
50166;BME280;36071;48.140;11.516;2023-05-24T01:29:01;95640.0;;;14.8;70.6
50166;BME280;36071;48.140;11.516;2023-05-24T01:34:00;95630.0;;;14.8;70.7
50166;BME280;36071;48.140;11.516;2023-05-24T01:39:00;95640.0;;;14.8;70.8
50166;BME280;36071;48.140;11.516;2023-05-24T01:49:02;95610.0;;;14.5;70.9
50166;BME280;36071;48.140;11.516;2023-05-24T01:54:00;95640.0;;;14.7;70.7
50166;BME280;36071;48.140;11.516;2023-05-24T01:59:01;95640.0;;;14.7;71.4
50166;BME280;36071;48.140;11.516;2023-05-24T02:04:01;95660.0;;;14.7;71.2
50166;BME280;36071;48.140;11.516;2023-05-24T02:09:00;95650.0;;;14.6;72.5
50166;BME280;36071;48.140;11.516;2023-05-24T02:14:00;95650.0;;;14.6;71.9
50166;BME280;36071;48.140;11.516;2023-05-24T02:19:01;95640.0;;;14.7;71.7
50166;BME280;36071;48.140;11.516;2023-05-24T02:24:00;95650.0;;;14.5;72.2
50166;BME280;36071;48.140;11.516;2023-05-24T02:29:01;95650.0;;;14.5;72.8
50166;BME280;36071;48.140;11.516;2023-05-24T02:34:01;95650.0;;;14.4;71.9
50166;BME280;36071;48.140;11.516;2023-05-24T02:39:01;95650.0;;;14.3;73.1
50166;BME280;36071;48.140;11.516;2023-05-24T02:44:00;95640.0;;;14.4;73.2
50166;BME280;36071;48.140;11.516;2023-05-24T02:54:00;95640.0;;;14.4;73.5
50166;BME280;36071;48.140;11.516;2023-05-24T02:59:00;95630.0;;;14.5;72.4
50166;BME280;36071;48.140;11.516;2023-05-24T03:04:01;95640.0;;;14.4;72.8
50166;BME280;36071;48.140;11.516;2023-05-24T03:09:00;95640.0;;;14.3;73.3
50166;BME280;36071;48.140;11.516;2023-05-24T03:14:00;95630.0;;;14.3;73.2
50166;BME280;36071;48.140;11.516;2023-05-24T03:19:01;95630.0;;;14.3;73.8
50166;BME280;36071;48.140;11.516;2023-05-24T03:39:01;95640.0;;;14.2;73.7
50166;BME280;36071;48.140;11.516;2023-05-24T03:44:00;95650.0;;;14.2;73.8
50166;BME280;36071;48.140;11.516;2023-05-24T03:49:00;95650.0;;;14.2;73.7
50166;BME280;36071;48.140;11.516;2023-05-24T03:54:01;95660.0;;;14.2;72.6
50166;BME280;36071;48.140;11.516;2023-05-24T03:59:00;95660.0;;;14.1;73.4
50166;BME280;36071;48.140;11.516;2023-05-24T04:04:01;95650.0;;;14.0;73.7
50166;BME280;36071;48.140;11.516;2023-05-24T04:09:01;95660.0;;;14.1;73.8
50166;BME280;36071;48.140;11.516;2023-05-24T04:14:01;95670.0;;;14.0;74.7
50166;BME280;36071;48.140;11.516;2023-05-24T04:19:02;95660.0;;;14.0;75.0
50166;BME280;36071;48.140;11.516;2023-05-24T04:24:01;95660.0;;;13.9;74.6
50166;BME280;36071;48.140;11.516;2023-05-24T04:29:01;95660.0;;;13.9;75.1
50166;BME280;36071;48.140;11.516;2023-05-24T04:34:00;95660.0;;;13.9;73.6
50166;BME280;36071;48.140;11.516;2023-05-24T04:54:01;95670.0;;;13.8;73.7
50166;BME280;36071;48.140;11.516;2023-05-24T04:59:00;95670.0;;;13.7;72.2
50166;BME280;36071;48.140;11.516;2023-05-24T05:04:01;95680.0;;;13.8;71.6
50166;BME280;36071;48.140;11.516;2023-05-24T05:09:01;95670.0;;;13.7;71.5
50166;BME280;36071;48.140;11.516;2023-05-24T05:14:01;95670.0;;;13.8;71.2
50166;BME280;36071;48.140;11.516;2023-05-24T05:19:01;95670.0;;;13.7;71.6
50166;BME280;36071;48.140;11.516;2023-05-24T05:24:01;95680.0;;;13.8;71.7
50166;BME280;36071;48.140;11.516;2023-05-24T05:29:01;95680.0;;;13.8;70.8
50166;BME280;36071;48.140;11.516;2023-05-24T05:34:00;95680.0;;;13.8;70.6
50166;BME280;36071;48.140;11.516;2023-05-24T05:44:01;95670.0;;;13.8;71.0
50166;BME280;36071;48.140;11.516;2023-05-24T05:49:00;95670.0;;;13.8;69.5
50166;BME280;36071;48.140;11.516;2023-05-24T05:54:08;95670.0;;;13.8;69.1
50166;BME280;36071;48.140;11.516;2023-05-24T05:59:00;95660.0;;;13.9;70.1
50166;BME280;36071;48.140;11.516;2023-05-24T06:04:01;95670.0;;;14.0;69.6
50166;BME280;36071;48.140;11.516;2023-05-24T06:09:01;95670.0;;;14.1;70.0
50166;BME280;36071;48.140;11.516;2023-05-24T06:14:02;95660.0;;;14.2;69.8
50166;BME280;36071;48.140;11.516;2023-05-24T06:19:00;95660.0;;;14.3;68.7
50166;BME280;36071;48.140;11.516;2023-05-24T06:24:01;95660.0;;;14.4;68.7
50166;BME280;36071;48.140;11.516;2023-05-24T06:29:01;95650.0;;;14.6;68.1
50166;BME280;36071;48.140;11.516;2023-05-24T06:34:01;95660.0;;;14.6;67.9
50166;BME280;36071;48.140;11.516;2023-05-24T06:39:01;95660.0;;;14.7;67.4
50166;BME280;36071;48.140;11.516;2023-05-24T06:44:00;95650.0;;;14.8;68.0
50166;BME280;36071;48.140;11.516;2023-05-24T06:49:01;95660.0;;;14.7;66.4
50166;BME280;36071;48.140;11.516;2023-05-24T06:54:01;95680.0;;;14.7;66.1
50166;BME280;36071;48.140;11.516;2023-05-24T07:09:01;95680.0;;;14.9;65.5
50166;BME280;36071;48.140;11.516;2023-05-24T07:14:01;95680.0;;;14.9;66.4
50166;BME280;36071;48.140;11.516;2023-05-24T07:19:01;95690.0;;;15.0;66.6
50166;BME280;36071;48.140;11.516;2023-05-24T07:24:01;95680.0;;;15.1;65.9
50166;BME280;36071;48.140;11.516;2023-05-24T07:29:00;95690.0;;;15.2;64.5
50166;BME280;36071;48.140;11.516;2023-05-24T07:34:00;95690.0;;;15.3;65.0
50166;BME280;36071;48.140;11.516;2023-05-24T07:39:01;95680.0;;;15.2;63.8
50166;BME280;36071;48.140;11.516;2023-05-24T07:44:00;95680.0;;;15.3;64.6
50166;BME280;36071;48.140;11.516;2023-05-24T07:49:00;95690.0;;;15.3;63.6
50166;BME280;36071;48.140;11.516;2023-05-24T07:54:01;95680.0;;;15.4;63.8
50166;BME280;36071;48.140;11.516;2023-05-24T07:59:02;95680.0;;;15.5;62.6
50166;BME280;36071;48.140;11.516;2023-05-24T08:04:01;95690.0;;;15.6;62.2
50166;BME280;36071;48.140;11.516;2023-05-24T08:09:00;95690.0;;;15.6;60.9
50166;BME280;36071;48.140;11.516;2023-05-24T08:14:01;95690.0;;;15.8;62.8
50166;BME280;36071;48.140;11.516;2023-05-24T08:19:01;95690.0;;;15.9;59.6
50166;BME280;36071;48.140;11.516;2023-05-24T08:24:01;95690.0;;;15.9;60.6
50166;BME280;36071;48.140;11.516;2023-05-24T08:29:03;95710.0;;;15.8;59.6
50166;BME280;36071;48.140;11.516;2023-05-24T08:34:00;95710.0;;;15.9;60.4
50166;BME280;36071;48.140;11.516;2023-05-24T08:39:01;95700.0;;;15.7;59.7
50166;BME280;36071;48.140;11.516;2023-05-24T08:44:01;95700.0;;;15.7;60.0
50166;BME280;36071;48.140;11.516;2023-05-24T08:49:02;95700.0;;;15.5;60.0
50166;BME280;36071;48.140;11.516;2023-05-24T08:54:01;95690.0;;;15.5;60.4
50166;BME280;36071;48.140;11.516;2023-05-24T08:59:00;95710.0;;;15.3;61.2
50166;BME280;36071;48.140;11.516;2023-05-24T09:04:01;95710.0;;;15.4;62.4
50166;BME280;36071;48.140;11.516;2023-05-24T09:09:01;95710.0;;;15.4;60.6
50166;BME280;36071;48.140;11.516;2023-05-24T09:14:01;95700.0;;;15.6;60.7
50166;BME280;36071;48.140;11.516;2023-05-24T09:19:01;95720.0;;;15.6;60.0
50166;BME280;36071;48.140;11.516;2023-05-24T09:24:01;95720.0;;;15.7;59.2
50166;BME280;36071;48.140;11.516;2023-05-24T09:29:01;95710.0;;;15.7;61.2
50166;BME280;36071;48.140;11.516;2023-05-24T09:34:01;95720.0;;;15.4;59.7
50166;BME280;36071;48.140;11.516;2023-05-24T09:39:04;95730.0;;;15.4;59.3
50166;BME280;36071;48.140;11.516;2023-05-24T09:44:01;95720.0;;;15.4;60.1
50166;BME280;36071;48.140;11.516;2023-05-24T09:49:01;95720.0;;;15.3;61.6
50166;BME280;36071;48.140;11.516;2023-05-24T09:54:01;95730.0;;;15.3;59.2
50166;BME280;36071;48.140;11.516;2023-05-24T09:59:04;95730.0;;;15.2;60.2
50166;BME280;36071;48.140;11.516;2023-05-24T10:04:02;95730.0;;;15.2;60.3
50166;BME280;36071;48.140;11.516;2023-05-24T10:09:01;95730.0;;;15.1;63.2
50166;BME280;36071;48.140;11.516;2023-05-24T10:14:02;95730.0;;;15.1;64.6
50166;BME280;36071;48.140;11.516;2023-05-24T10:19:01;95740.0;;;15.0;65.5
50166;BME280;36071;48.140;11.516;2023-05-24T10:24:01;95740.0;;;15.0;65.7
50166;BME280;36071;48.140;11.516;2023-05-24T10:29:03;95740.0;;;15.1;64.8
50166;BME280;36071;48.140;11.516;2023-05-24T10:34:01;95740.0;;;15.1;65.2
50166;BME280;36071;48.140;11.516;2023-05-24T10:39:01;95740.0;;;15.2;66.4
50166;BME280;36071;48.140;11.516;2023-05-24T10:44:01;95740.0;;;15.2;62.6
50166;BME280;36071;48.140;11.516;2023-05-24T10:49:01;95740.0;;;15.1;62.1
50166;BME280;36071;48.140;11.516;2023-05-24T10:54:09;95750.0;;;15.2;60.9
50166;BME280;36071;48.140;11.516;2023-05-24T10:59:01;95740.0;;;15.0;60.3
50166;BME280;36071;48.140;11.516;2023-05-24T11:04:08;95750.0;;;15.0;60.6
50166;BME280;36071;48.140;11.516;2023-05-24T11:09:01;95740.0;;;15.0;61.2
50166;BME280;36071;48.140;11.516;2023-05-24T11:14:01;95740.0;;;15.1;60.6
50166;BME280;36071;48.140;11.516;2023-05-24T11:19:10;95740.0;;;15.2;59.1
50166;BME280;36071;48.140;11.516;2023-05-24T11:24:01;95740.0;;;15.3;59.4
50166;BME280;36071;48.140;11.516;2023-05-24T11:29:01;95730.0;;;15.3;58.2
50166;BME280;36071;48.140;11.516;2023-05-24T11:34:01;95740.0;;;15.4;57.9
50166;BME280;36071;48.140;11.516;2023-05-24T11:39:02;95730.0;;;15.6;58.3
50166;BME280;36071;48.140;11.516;2023-05-24T11:44:01;95740.0;;;15.8;57.9
50166;BME280;36071;48.140;11.516;2023-05-24T11:49:01;95730.0;;;15.8;57.2
50166;BME280;36071;48.140;11.516;2023-05-24T11:54:01;95720.0;;;15.8;58.9
50166;BME280;36071;48.140;11.516;2023-05-24T11:59:09;95730.0;;;15.7;56.7
50166;BME280;36071;48.140;11.516;2023-05-24T12:04:01;95720.0;;;15.8;55.8
50166;BME280;36071;48.140;11.516;2023-05-24T12:09:01;95740.0;;;15.7;55.3
50166;BME280;36071;48.140;11.516;2023-05-24T12:14:01;95740.0;;;15.6;55.4
50166;BME280;36071;48.140;11.516;2023-05-24T12:19:01;95740.0;;;15.6;53.1
50166;BME280;36071;48.140;11.516;2023-05-24T12:24:07;95740.0;;;15.7;54.5
50166;BME280;36071;48.140;11.516;2023-05-24T12:29:01;95740.0;;;15.6;53.5
50166;BME280;36071;48.140;11.516;2023-05-24T12:34:01;95740.0;;;15.4;56.1
50166;BME280;36071;48.140;11.516;2023-05-24T12:39:04;95740.0;;;15.4;55.5
50166;BME280;36071;48.140;11.516;2023-05-24T12:44:02;95740.0;;;15.4;54.6
50166;BME280;36071;48.140;11.516;2023-05-24T12:49:03;95740.0;;;15.7;55.7
50166;BME280;36071;48.140;11.516;2023-05-24T12:54:01;95730.0;;;15.6;55.0
50166;BME280;36071;48.140;11.516;2023-05-24T12:59:01;95730.0;;;15.6;56.9
50166;BME280;36071;48.140;11.516;2023-05-24T13:04:01;95720.0;;;15.8;56.1
50166;BME280;36071;48.140;11.516;2023-05-24T13:09:01;95720.0;;;15.8;53.8
50166;BME280;36071;48.140;11.516;2023-05-24T13:14:01;95720.0;;;16.0;55.9
50166;BME280;36071;48.140;11.516;2023-05-24T13:19:01;95710.0;;;16.0;55.0
50166;BME280;36071;48.140;11.516;2023-05-24T13:24:01;95720.0;;;16.0;54.2
50166;BME280;36071;48.140;11.516;2023-05-24T13:29:01;95720.0;;;16.1;55.4
50166;BME280;36071;48.140;11.516;2023-05-24T13:34:01;95730.0;;;16.0;53.8
50166;BME280;36071;48.140;11.516;2023-05-24T13:39:01;95720.0;;;16.1;52.2
50166;BME280;36071;48.140;11.516;2023-05-24T13:44:01;95730.0;;;16.1;52.3
50166;BME280;36071;48.140;11.516;2023-05-24T13:49:01;95720.0;;;16.2;52.0
50166;BME280;36071;48.140;11.516;2023-05-24T13:54:01;95730.0;;;16.1;51.4
50166;BME280;36071;48.140;11.516;2023-05-24T13:59:01;95730.0;;;16.1;51.3
50166;BME280;36071;48.140;11.516;2023-05-24T14:04:01;95740.0;;;16.0;49.8
50166;BME280;36071;48.140;11.516;2023-05-24T14:09:01;95730.0;;;16.0;50.1
50166;BME280;36071;48.140;11.516;2023-05-24T14:14:01;95730.0;;;16.1;51.2
50166;BME280;36071;48.140;11.516;2023-05-24T14:19:01;95730.0;;;16.1;51.8
50166;BME280;36071;48.140;11.516;2023-05-24T14:24:01;95740.0;;;16.1;50.8
50166;BME280;36071;48.140;11.516;2023-05-24T14:29:01;95730.0;;;16.2;47.0
50166;BME280;36071;48.140;11.516;2023-05-24T14:34:01;95720.0;;;16.2;47.9
50166;BME280;36071;48.140;11.516;2023-05-24T14:39:01;95730.0;;;16.1;47.8
50166;BME280;36071;48.140;11.516;2023-05-24T14:44:01;95710.0;;;16.3;46.4
50166;BME280;36071;48.140;11.516;2023-05-24T14:49:01;95710.0;;;16.4;47.6
50166;BME280;36071;48.140;11.516;2023-05-24T14:54:01;95720.0;;;16.5;50.6
50166;BME280;36071;48.140;11.516;2023-05-24T14:59:01;95720.0;;;16.4;47.1
50166;BME280;36071;48.140;11.516;2023-05-24T15:04:01;95710.0;;;16.8;49.9
50166;BME280;36071;48.140;11.516;2023-05-24T15:09:03;95700.0;;;16.9;47.0
50166;BME280;36071;48.140;11.516;2023-05-24T15:14:01;95700.0;;;16.8;46.8
50166;BME280;36071;48.140;11.516;2023-05-24T15:19:02;95690.0;;;16.9;45.6
50166;BME280;36071;48.140;11.516;2023-05-24T15:24:01;95690.0;;;16.9;44.6
50166;BME280;36071;48.140;11.516;2023-05-24T15:29:01;95690.0;;;16.8;44.7
50166;BME280;36071;48.140;11.516;2023-05-24T15:34:01;95700.0;;;16.9;44.3
50166;BME280;36071;48.140;11.516;2023-05-24T15:39:01;95690.0;;;17.2;44.2
50166;BME280;36071;48.140;11.516;2023-05-24T15:44:01;95680.0;;;17.3;45.9
50166;BME280;36071;48.140;11.516;2023-05-24T15:49:01;95680.0;;;17.4;44.2
50166;BME280;36071;48.140;11.516;2023-05-24T15:54:02;95680.0;;;17.6;44.5
50166;BME280;36071;48.140;11.516;2023-05-24T15:59:01;95680.0;;;17.5;44.0
50166;BME280;36071;48.140;11.516;2023-05-24T16:04:01;95670.0;;;17.6;44.9
50166;BME280;36071;48.140;11.516;2023-05-24T16:09:01;95680.0;;;17.6;44.6
50166;BME280;36071;48.140;11.516;2023-05-24T16:14:01;95680.0;;;17.6;43.9
50166;BME280;36071;48.140;11.516;2023-05-24T16:19:01;95660.0;;;17.5;42.8
50166;BME280;36071;48.140;11.516;2023-05-24T16:24:01;95660.0;;;17.5;43.1
50166;BME280;36071;48.140;11.516;2023-05-24T16:29:01;95650.0;;;17.5;44.8
50166;BME280;36071;48.140;11.516;2023-05-24T16:34:01;95670.0;;;17.5;45.2
50166;BME280;36071;48.140;11.516;2023-05-24T16:39:01;95660.0;;;17.5;44.9
50166;BME280;36071;48.140;11.516;2023-05-24T16:44:01;95660.0;;;17.4;45.5
50166;BME280;36071;48.140;11.516;2023-05-24T16:49:12;95660.0;;;17.3;44.9
50166;BME280;36071;48.140;11.516;2023-05-24T16:54:01;95660.0;;;17.3;47.0
50166;BME280;36071;48.140;11.516;2023-05-24T17:14:01;95660.0;;;17.1;47.2
50166;BME280;36071;48.140;11.516;2023-05-24T17:19:01;95670.0;;;17.0;45.6
50166;BME280;36071;48.140;11.516;2023-05-24T17:24:01;95660.0;;;16.8;46.5
50166;BME280;36071;48.140;11.516;2023-05-24T17:29:01;95680.0;;;16.7;46.5
50166;BME280;36071;48.140;11.516;2023-05-24T17:34:02;95670.0;;;16.6;47.4
50166;BME280;36071;48.140;11.516;2023-05-24T17:39:01;95690.0;;;16.6;47.5
50166;BME280;36071;48.140;11.516;2023-05-24T17:44:03;95680.0;;;16.7;46.7
50166;BME280;36071;48.140;11.516;2023-05-24T17:49:01;95680.0;;;16.6;46.6
50166;BME280;36071;48.140;11.516;2023-05-24T17:54:01;95690.0;;;16.6;47.2
50166;BME280;36071;48.140;11.516;2023-05-24T17:59:01;95680.0;;;16.5;47.6
50166;BME280;36071;48.140;11.516;2023-05-24T18:09:02;95690.0;;;16.6;46.8
50166;BME280;36071;48.140;11.516;2023-05-24T18:14:01;95690.0;;;16.5;47.5
50166;BME280;36071;48.140;11.516;2023-05-24T18:19:01;95700.0;;;16.5;47.6
50166;BME280;36071;48.140;11.516;2023-05-24T18:24:01;95710.0;;;16.3;48.3
50166;BME280;36071;48.140;11.516;2023-05-24T18:29:01;95730.0;;;16.2;48.9
50166;BME280;36071;48.140;11.516;2023-05-24T18:34:03;95730.0;;;16.2;49.9
50166;BME280;36071;48.140;11.516;2023-05-24T18:39:01;95740.0;;;16.2;48.6
50166;BME280;36071;48.140;11.516;2023-05-24T18:44:01;95740.0;;;16.1;49.2
50166;BME280;36071;48.140;11.516;2023-05-24T18:49:01;95740.0;;;16.0;47.8
50166;BME280;36071;48.140;11.516;2023-05-24T18:54:01;95750.0;;;15.8;48.9
50166;BME280;36071;48.140;11.516;2023-05-24T18:59:02;95750.0;;;15.7;48.2
50166;BME280;36071;48.140;11.516;2023-05-24T19:04:01;95750.0;;;15.7;49.3
50166;BME280;36071;48.140;11.516;2023-05-24T19:09:01;95760.0;;;15.6;49.1
50166;BME280;36071;48.140;11.516;2023-05-24T19:14:01;95760.0;;;15.5;51.7
50166;BME280;36071;48.140;11.516;2023-05-24T19:19:01;95750.0;;;15.4;54.6
50166;BME280;36071;48.140;11.516;2023-05-24T19:24:01;95770.0;;;15.2;55.2
50166;BME280;36071;48.140;11.516;2023-05-24T19:29:01;95770.0;;;15.2;55.5
50166;BME280;36071;48.140;11.516;2023-05-24T19:34:02;95770.0;;;15.0;56.7
50166;BME280;36071;48.140;11.516;2023-05-24T19:39:01;95780.0;;;15.0;58.2
50166;BME280;36071;48.140;11.516;2023-05-24T19:44:01;95790.0;;;14.8;57.2
50166;BME280;36071;48.140;11.516;2023-05-24T19:49:01;95800.0;;;14.7;57.5
50166;BME280;36071;48.140;11.516;2023-05-24T19:54:01;95800.0;;;14.7;57.0
50166;BME280;36071;48.140;11.516;2023-05-24T19:59:01;95800.0;;;14.6;57.9
50166;BME280;36071;48.140;11.516;2023-05-24T20:04:01;95810.0;;;14.6;58.1
50166;BME280;36071;48.140;11.516;2023-05-24T20:09:01;95800.0;;;14.5;57.9
50166;BME280;36071;48.140;11.516;2023-05-24T20:14:01;95800.0;;;14.4;58.3
50166;BME280;36071;48.140;11.516;2023-05-24T20:19:01;95790.0;;;14.4;58.6
50166;BME280;36071;48.140;11.516;2023-05-24T20:24:01;95790.0;;;14.2;59.3
50166;BME280;36071;48.140;11.516;2023-05-24T20:29:01;95790.0;;;14.3;59.2
50166;BME280;36071;48.140;11.516;2023-05-24T20:34:01;95790.0;;;14.2;59.4
50166;BME280;36071;48.140;11.516;2023-05-24T20:39:01;95790.0;;;14.1;59.2
50166;BME280;36071;48.140;11.516;2023-05-24T20:44:01;95780.0;;;14.1;59.2
50166;BME280;36071;48.140;11.516;2023-05-24T20:49:01;95780.0;;;14.1;59.4
50166;BME280;36071;48.140;11.516;2023-05-24T20:54:02;95780.0;;;14.0;59.6
50166;BME280;36071;48.140;11.516;2023-05-24T20:59:01;95790.0;;;13.9;59.8
50166;BME280;36071;48.140;11.516;2023-05-24T21:04:01;95790.0;;;13.9;59.9
50166;BME280;36071;48.140;11.516;2023-05-24T21:14:01;95790.0;;;13.8;60.2
50166;BME280;36071;48.140;11.516;2023-05-24T21:19:01;95800.0;;;13.7;60.2
50166;BME280;36071;48.140;11.516;2023-05-24T21:24:01;95800.0;;;13.8;60.4
50166;BME280;36071;48.140;11.516;2023-05-24T21:29:01;95800.0;;;13.7;60.4
50166;BME280;36071;48.140;11.516;2023-05-24T21:34:01;95800.0;;;13.7;61.0
50166;BME280;36071;48.140;11.516;2023-05-24T21:39:01;95800.0;;;13.7;61.2
50166;BME280;36071;48.140;11.516;2023-05-24T21:44:01;95800.0;;;13.7;61.1
50166;BME280;36071;48.140;11.516;2023-05-24T21:49:03;95800.0;;;13.6;61.1
50166;BME280;36071;48.140;11.516;2023-05-24T21:54:01;95810.0;;;13.5;61.3
50166;BME280;36071;48.140;11.516;2023-05-24T21:59:01;95800.0;;;13.5;61.2
50166;BME280;36071;48.140;11.516;2023-05-24T22:04:01;95810.0;;;13.5;60.2
50166;BME280;36071;48.140;11.516;2023-05-24T22:09:01;95810.0;;;13.5;60.5
50166;BME280;36071;48.140;11.516;2023-05-24T22:24:01;95810.0;;;13.5;58.9
50166;BME280;36071;48.140;11.516;2023-05-24T22:29:01;95810.0;;;13.4;58.1
50166;BME280;36071;48.140;11.516;2023-05-24T22:34:01;95810.0;;;13.5;58.1
50166;BME280;36071;48.140;11.516;2023-05-24T22:39:02;95810.0;;;13.4;58.3
50166;BME280;36071;48.140;11.516;2023-05-24T22:44:01;95820.0;;;13.4;57.6
50166;BME280;36071;48.140;11.516;2023-05-24T22:49:01;95800.0;;;13.4;57.5
50166;BME280;36071;48.140;11.516;2023-05-24T22:54:01;95810.0;;;13.4;55.3
50166;BME280;36071;48.140;11.516;2023-05-24T22:59:01;95800.0;;;13.3;54.2
50166;BME280;36071;48.140;11.516;2023-05-24T23:04:01;95800.0;;;13.3;53.8
50166;BME280;36071;48.140;11.516;2023-05-24T23:09:01;95810.0;;;13.2;53.9
50166;BME280;36071;48.140;11.516;2023-05-24T23:14:01;95800.0;;;13.1;54.1
50166;BME280;36071;48.140;11.516;2023-05-24T23:19:01;95800.0;;;13.2;53.9
50166;BME280;36071;48.140;11.516;2023-05-24T23:24:01;95790.0;;;13.1;54.2
50166;BME280;36071;48.140;11.516;2023-05-24T23:29:01;95790.0;;;13.1;54.5
50166;BME280;36071;48.140;11.516;2023-05-24T23:34:01;95790.0;;;13.1;54.2
50166;BME280;36071;48.140;11.516;2023-05-24T23:39:01;95790.0;;;13.1;54.4
50166;BME280;36071;48.140;11.516;2023-05-24T23:44:01;95790.0;;;13.0;54.8
50166;BME280;36071;48.140;11.516;2023-05-24T23:49:01;95790.0;;;13.0;54.5
50166;BME280;36071;48.140;11.516;2023-05-24T23:54:01;95800.0;;;13.0;55.1
50166;BME280;36071;48.140;11.516;2023-05-24T23:59:01;95800.0;;;12.9;55.3
